createdAt,value
2018-04-17T00:01:03.599Z,6.90
2018-04-17T00:03:31.164Z,7.13
2018-04-17T00:05:58.773Z,6.80
2018-04-17T00:08:26.336Z,6.63
2018-04-17T00:10:53.897Z,6.90
2018-04-17T00:13:21.692Z,6.63
2018-04-17T00:15:49.512Z,6.70
2018-04-17T00:18:17.087Z,5.83
2018-04-17T00:20:44.846Z,4.47
2018-04-17T00:23:12.442Z,4.53
2018-04-17T00:25:40.018Z,5.00
2018-04-17T00:28:07.576Z,5.30
2018-04-17T00:30:35.192Z,5.53
2018-04-17T00:33:02.902Z,4.97
2018-04-17T00:35:30.619Z,4.53
2018-04-17T00:37:58.184Z,5.63
2018-04-17T00:40:25.801Z,3.83
2018-04-17T00:42:53.355Z,4.00
2018-04-17T00:45:21.124Z,4.57
2018-04-17T00:47:48.954Z,4.50
2018-04-17T00:50:16.516Z,4.23
2018-04-17T00:52:44.261Z,4.50
2018-04-17T00:55:11.821Z,4.97
2018-04-17T00:57:39.618Z,4.40
2018-04-17T01:00:07.227Z,4.43
2018-04-17T01:02:34.821Z,4.33
2018-04-17T01:05:02.388Z,4.30
2018-04-17T01:07:29.940Z,4.20
2018-04-17T01:09:57.856Z,4.60
2018-04-17T01:12:25.595Z,4.30
2018-04-17T01:14:53.216Z,3.90
2018-04-17T01:17:20.768Z,3.60
2018-04-17T01:19:48.316Z,3.73
2018-04-17T01:22:15.880Z,4.33
2018-04-17T01:24:43.456Z,3.40
2018-04-17T01:27:11.012Z,4.00
2018-04-17T01:29:38.573Z,3.20
2018-04-17T01:32:06.180Z,3.60
2018-04-17T01:34:33.769Z,3.57
2018-04-17T01:37:01.317Z,3.83
2018-04-17T01:39:28.921Z,3.43
2018-04-17T01:41:56.472Z,3.90
2018-04-17T01:44:24.069Z,4.23
2018-04-17T01:46:51.621Z,4.10
2018-04-17T01:49:19.411Z,4.53
2018-04-17T01:51:47.213Z,4.47
2018-04-17T01:54:14.746Z,4.03
2018-04-17T01:56:42.550Z,4.30
2018-04-17T01:59:10.270Z,4.10
2018-04-17T02:01:37.832Z,4.37
2018-04-17T02:04:05.417Z,4.20
2018-04-17T02:06:33.109Z,3.80
2018-04-17T02:09:00.661Z,3.97
2018-04-17T02:11:28.212Z,3.70
2018-04-17T02:13:55.781Z,4.60
2018-04-17T02:16:23.348Z,4.10
2018-04-17T02:18:50.921Z,4.53
2018-04-17T02:21:18.630Z,3.90
2018-04-17T02:23:46.238Z,3.97
2018-04-17T02:26:13.808Z,4.00
2018-04-17T02:28:41.585Z,4.07
2018-04-17T02:31:09.148Z,3.97
2018-04-17T02:33:36.703Z,4.57
2018-04-17T02:36:04.417Z,4.10
2018-04-17T02:38:32.159Z,4.57
2018-04-17T02:40:59.772Z,4.43
2018-04-17T02:43:27.495Z,4.07
2018-04-17T02:45:55.184Z,4.50
2018-04-17T02:48:22.749Z,4.57
2018-04-17T02:50:50.345Z,4.83
2018-04-17T02:53:17.909Z,4.80
2018-04-17T02:55:45.682Z,4.63
2018-04-17T02:58:13.502Z,5.23
2018-04-17T03:00:41.219Z,4.90
2018-04-17T03:03:09.037Z,4.37
2018-04-17T03:05:36.588Z,4.60
2018-04-17T03:08:04.184Z,5.13
2018-04-17T03:10:31.752Z,5.27
2018-04-17T03:12:59.508Z,5.27
2018-04-17T03:15:27.106Z,4.70
2018-04-17T03:17:54.656Z,4.60
2018-04-17T03:20:22.284Z,4.83
2018-04-17T03:22:49.870Z,3.97
2018-04-17T03:25:17.599Z,3.83
2018-04-17T03:27:45.160Z,3.90
2018-04-17T03:30:12.718Z,4.03
2018-04-17T03:32:40.283Z,4.10
2018-04-17T03:35:07.979Z,4.00
2018-04-17T03:37:35.697Z,4.73
2018-04-17T03:40:03.288Z,4.87
2018-04-17T03:42:30.902Z,5.23
2018-04-17T03:44:58.601Z,4.57
2018-04-17T03:47:26.343Z,5.33
2018-04-17T03:49:53.908Z,4.90
2018-04-17T03:52:21.695Z,5.00
2018-04-17T03:54:49.514Z,4.63
2018-04-17T03:57:17.077Z,5.43
2018-04-17T03:59:44.634Z,5.63
2018-04-17T04:02:12.368Z,5.43
2018-04-17T04:04:39.928Z,5.03
2018-04-17T04:07:07.542Z,5.50
2018-04-17T04:09:35.093Z,5.40
2018-04-17T04:12:02.720Z,5.67
2018-04-17T04:14:30.301Z,5.47
2018-04-17T04:17:09.916Z,5.03
2018-04-17T04:19:49.297Z,5.50
2018-04-17T04:22:28.781Z,5.03
2018-04-17T04:25:08.295Z,5.63
2018-04-17T04:27:36.916Z,5.87
2018-04-17T04:30:04.537Z,5.60
2018-04-17T04:32:32.352Z,5.87
2018-04-17T04:34:59.912Z,6.70
2018-04-17T04:37:27.479Z,5.67
2018-04-17T04:39:55.288Z,5.43
2018-04-17T04:42:23.005Z,5.50
2018-04-17T04:44:50.639Z,6.50
2018-04-17T04:47:18.214Z,6.20
2018-04-17T04:49:45.982Z,5.80
2018-04-17T04:52:13.545Z,6.17
2018-04-17T04:54:41.115Z,5.40
2018-04-17T04:57:08.695Z,5.80
2018-04-17T04:59:36.421Z,5.43
2018-04-17T05:02:04.120Z,5.63
2018-04-17T05:04:31.881Z,5.73
2018-04-17T05:06:59.495Z,6.23
2018-04-17T05:09:27.227Z,5.67
2018-04-17T05:11:54.784Z,5.40
2018-04-17T05:14:22.408Z,6.20
2018-04-17T05:16:49.968Z,6.13
2018-04-17T05:19:17.576Z,7.30
2018-04-17T05:21:45.147Z,7.07
2018-04-17T05:24:12.781Z,6.50
2018-04-17T05:26:40.348Z,6.70
2018-04-17T05:29:07.904Z,6.00
2018-04-17T05:31:35.529Z,5.93
2018-04-17T05:34:03.305Z,6.57
2018-04-17T05:36:30.935Z,7.13
2018-04-17T05:38:58.492Z,7.70
2018-04-17T05:41:26.052Z,7.50
2018-04-17T05:43:53.809Z,7.57
2018-04-17T05:46:21.596Z,9.73
2018-04-17T05:48:49.163Z,8.47
2018-04-17T05:51:16.734Z,7.00
2018-04-17T05:53:44.551Z,7.97
2018-04-17T05:56:12.267Z,8.57
2018-04-17T05:58:39.833Z,8.23
2018-04-17T06:01:07.405Z,9.17
2018-04-17T06:03:34.956Z,8.03
2018-04-17T06:06:02.621Z,9.43
2018-04-17T06:08:30.172Z,8.60
2018-04-17T06:10:57.975Z,8.43
2018-04-17T06:13:25.794Z,9.17
2018-04-17T06:15:53.356Z,11.23
2018-04-17T06:18:21.022Z,11.70
2018-04-17T06:20:48.751Z,12.17
2018-04-17T06:23:16.318Z,10.77
2018-04-17T06:25:43.886Z,10.70
2018-04-17T06:28:11.452Z,11.73
2018-04-17T06:30:39.085Z,12.37
2018-04-17T06:33:06.649Z,8.07
2018-04-17T06:35:34.212Z,8.00
2018-04-17T06:38:01.763Z,10.23
2018-04-17T06:40:29.372Z,10.47
2018-04-17T06:42:56.924Z,10.50
2018-04-17T06:45:24.499Z,8.60
2018-04-17T06:47:52.108Z,6.83
2018-04-17T06:50:19.684Z,6.10
2018-04-17T06:52:47.508Z,6.13
2018-04-17T06:55:15.093Z,5.73
2018-04-17T06:57:42.708Z,5.10
2018-04-17T07:00:10.536Z,5.70
2018-04-17T07:02:38.353Z,7.77
2018-04-17T07:05:06.169Z,7.90
2018-04-17T07:07:33.769Z,9.73
2018-04-17T07:10:01.478Z,7.30
2018-04-17T07:12:29.080Z,11.37
2018-04-17T07:14:56.686Z,12.00
2018-04-17T07:17:24.354Z,10.80
2018-04-17T07:19:52.082Z,9.60
2018-04-17T07:22:19.799Z,9.87
2018-04-17T07:24:47.363Z,9.50
2018-04-17T07:27:14.981Z,9.23
2018-04-17T07:29:42.549Z,8.77
2018-04-17T07:32:10.120Z,10.30
2018-04-17T07:34:37.744Z,10.77
2018-04-17T07:37:05.325Z,10.40
2018-04-17T07:39:32.917Z,9.70
2018-04-17T07:42:00.528Z,9.63
2018-04-17T07:44:28.177Z,9.93
2018-04-17T07:47:07.825Z,11.27
2018-04-17T07:49:35.389Z,12.40
2018-04-17T07:52:03.045Z,12.03
2018-04-17T07:54:30.608Z,11.67
2018-04-17T07:56:58.168Z,13.10
2018-04-17T07:59:25.892Z,10.93
2018-04-17T08:01:53.496Z,11.10
2018-04-17T08:04:21.072Z,10.40
2018-04-17T08:06:48.650Z,10.00
2018-04-17T08:09:16.380Z,10.17
2018-04-17T08:11:43.949Z,10.13
2018-04-17T08:14:11.512Z,11.17
2018-04-17T08:16:39.117Z,13.37
2018-04-17T08:19:06.681Z,15.50
2018-04-17T08:21:34.240Z,11.83
2018-04-17T08:24:01.798Z,10.30
2018-04-17T08:26:29.608Z,11.90
2018-04-17T08:28:57.183Z,10.10
2018-04-17T08:31:24.727Z,10.40
2018-04-17T08:33:52.284Z,9.60
2018-04-17T08:36:19.862Z,10.00
2018-04-17T08:38:47.445Z,33.43
2018-04-17T08:41:15.096Z,9.17
2018-04-17T08:43:42.934Z,9.73
2018-04-17T08:46:10.522Z,9.67
2018-04-17T08:48:38.269Z,8.57
2018-04-17T08:51:06.087Z,9.20
2018-04-17T08:53:33.660Z,9.40
2018-04-17T08:56:01.214Z,8.57
2018-04-17T08:58:28.797Z,8.13
2018-04-17T09:00:56.416Z,9.03
2018-04-17T09:03:23.977Z,7.90
2018-04-17T09:05:51.599Z,8.67
2018-04-17T09:08:19.413Z,8.97
2018-04-17T09:10:46.988Z,8.43
2018-04-17T09:13:14.552Z,8.60
2018-04-17T09:15:42.129Z,8.47
2018-04-17T09:18:09.753Z,8.00
2018-04-17T09:20:37.308Z,8.97
2018-04-17T09:23:04.864Z,9.37
2018-04-17T09:25:32.617Z,8.30
2018-04-17T09:28:00.362Z,9.07
2018-04-17T09:30:28.083Z,8.20
2018-04-17T09:32:55.648Z,9.33
2018-04-17T09:35:23.273Z,10.03
2018-04-17T09:37:50.829Z,8.63
2018-04-17T09:40:18.562Z,11.80
2018-04-17T09:42:46.143Z,8.43
2018-04-17T09:45:13.984Z,8.57
2018-04-17T09:47:41.593Z,8.73
2018-04-17T09:50:09.151Z,8.97
2018-04-17T09:52:36.816Z,9.53
2018-04-17T09:55:04.380Z,8.97
2018-04-17T09:57:32.214Z,9.80
2018-04-17T09:59:59.992Z,10.87
2018-04-17T10:02:27.910Z,9.50
2018-04-17T10:04:55.624Z,8.90
2018-04-17T10:07:23.447Z,11.47
2018-04-17T10:09:51.267Z,10.20
2018-04-17T10:12:19.086Z,10.40
2018-04-17T10:14:46.904Z,11.73
2018-04-17T10:17:14.543Z,9.50
2018-04-17T10:19:42.084Z,9.77
2018-04-17T10:22:09.657Z,10.63
2018-04-17T10:24:37.208Z,9.63
2018-04-17T10:27:05.004Z,9.87
2018-04-17T10:29:32.813Z,10.97
2018-04-17T10:32:00.522Z,9.93
2018-04-17T10:34:28.110Z,10.07
2018-04-17T10:36:55.745Z,10.80
2018-04-17T10:39:23.314Z,10.17
2018-04-17T10:41:51.011Z,10.43
2018-04-17T10:44:18.632Z,10.67
2018-04-17T10:46:46.215Z,10.53
2018-04-17T10:49:13.949Z,10.60
2018-04-17T10:51:41.781Z,11.00
2018-04-17T10:54:09.353Z,10.50
2018-04-17T10:56:37.112Z,9.83
2018-04-17T10:59:04.931Z,9.33
2018-04-17T11:01:32.749Z,9.80
2018-04-17T11:04:00.409Z,9.67
2018-04-17T11:06:27.962Z,9.10
2018-04-17T11:08:55.535Z,8.87
2018-04-17T11:11:23.120Z,9.10
2018-04-17T11:13:50.694Z,8.87
2018-04-17T11:16:18.460Z,8.43
2018-04-17T11:18:46.276Z,8.23
2018-04-17T11:21:14.094Z,8.53
2018-04-17T11:23:41.657Z,7.80
2018-04-17T11:26:09.221Z,8.63
2018-04-17T11:28:36.948Z,12.57
2018-04-17T11:31:04.767Z,8.83
2018-04-17T11:33:32.368Z,7.90
2018-04-17T11:36:00.203Z,8.30
2018-04-17T11:38:27.826Z,8.90
2018-04-17T11:40:55.385Z,7.03
2018-04-17T11:43:22.957Z,7.20
2018-04-17T11:45:50.549Z,6.63
2018-04-17T11:48:18.265Z,6.17
2018-04-17T11:50:45.824Z,6.83
2018-04-17T11:53:13.433Z,6.00
2018-04-17T11:55:40.996Z,5.50
2018-04-17T11:58:08.570Z,5.93
2018-04-17T12:00:36.171Z,5.90
2018-04-17T12:03:03.900Z,5.37
2018-04-17T12:05:31.479Z,6.03
2018-04-17T12:07:59.236Z,5.40
2018-04-17T12:10:27.054Z,5.50
2018-04-17T12:12:54.884Z,5.63
2018-04-17T12:15:22.695Z,5.83
2018-04-17T12:17:50.276Z,6.00
2018-04-17T12:20:17.862Z,6.57
2018-04-17T12:22:45.625Z,5.90
2018-04-17T12:25:13.264Z,5.50
2018-04-17T12:27:40.872Z,5.50
2018-04-17T12:30:08.428Z,5.97
2018-04-17T12:32:35.980Z,5.27
2018-04-17T12:35:03.593Z,5.50
2018-04-17T12:37:31.194Z,6.53
2018-04-17T12:39:58.971Z,5.60
2018-04-17T12:42:26.550Z,6.77
2018-04-17T12:44:54.374Z,6.40
2018-04-17T12:47:21.950Z,6.37
2018-04-17T12:49:49.742Z,6.83
2018-04-17T12:52:17.328Z,7.00
2018-04-17T12:54:45.041Z,8.13
2018-04-17T12:57:12.593Z,6.60
2018-04-17T12:59:40.157Z,6.50
2018-04-17T13:02:07.797Z,7.13
2018-04-17T13:04:35.507Z,6.80
2018-04-17T13:07:03.175Z,7.20
2018-04-17T13:09:30.988Z,49.37
2018-04-17T13:11:58.567Z,14.47
2018-04-17T13:14:26.133Z,7.53
2018-04-17T13:16:53.943Z,6.63
2018-04-17T13:19:21.581Z,6.53
2018-04-17T13:21:49.153Z,6.73
2018-04-17T13:24:21.775Z,7.30
2018-04-17T13:26:49.535Z,7.50
2018-04-17T13:29:17.143Z,6.97
2018-04-17T13:31:44.726Z,6.97
2018-04-17T13:34:12.488Z,7.37
2018-04-17T13:36:40.309Z,6.80
2018-04-17T13:39:07.881Z,7.23
2018-04-17T13:41:35.523Z,6.87
2018-04-17T13:44:03.181Z,6.27
2018-04-17T13:46:30.736Z,6.10
2018-04-17T13:48:58.304Z,6.30
2018-04-17T13:51:26.115Z,6.30
2018-04-17T13:53:53.695Z,6.43
2018-04-17T13:56:21.269Z,7.20
2018-04-17T13:58:49.067Z,6.70
2018-04-17T14:01:16.787Z,6.43
2018-04-17T14:03:44.348Z,7.43
2018-04-17T14:06:12.122Z,6.47
2018-04-17T14:08:39.840Z,6.13
2018-04-17T14:11:07.417Z,5.40
2018-04-17T14:13:35.179Z,6.20
2018-04-17T14:16:02.810Z,7.90
2018-04-17T14:18:30.444Z,7.10
2018-04-17T14:20:58.003Z,6.27
2018-04-17T14:23:25.753Z,6.77
2018-04-17T14:25:53.313Z,6.27
2018-04-17T14:28:20.873Z,6.37
2018-04-17T14:30:48.461Z,6.47
2018-04-17T14:33:16.080Z,7.17
2018-04-17T14:35:43.633Z,6.40
2018-04-17T14:38:11.200Z,6.37
2018-04-17T14:40:38.768Z,6.07
2018-04-17T14:43:06.414Z,7.13
2018-04-17T14:45:34.222Z,7.10
2018-04-17T14:48:01.785Z,7.00
2018-04-17T14:50:29.442Z,6.70
2018-04-17T14:52:57.001Z,7.10
2018-04-17T14:55:24.573Z,7.07
2018-04-17T14:57:52.153Z,5.80
2018-04-17T15:00:19.919Z,17.90
2018-04-17T15:02:47.741Z,9.77
2018-04-17T15:05:15.448Z,6.90
2018-04-17T15:07:43.274Z,5.50
2018-04-17T15:10:10.839Z,6.70
2018-04-17T15:12:38.495Z,6.33
2018-04-17T15:15:06.228Z,6.13
2018-04-17T15:17:33.802Z,6.00
2018-04-17T15:20:01.370Z,5.93
2018-04-17T15:22:31.625Z,6.13
2018-04-17T15:24:59.262Z,5.77
2018-04-17T15:27:26.983Z,6.20
2018-04-17T15:29:54.600Z,10.53
2018-04-17T15:32:22.188Z,11.47
2018-04-17T15:34:49.773Z,7.03
2018-04-17T15:37:17.515Z,9.57
2018-04-17T15:39:45.322Z,11.77
2018-04-17T15:42:12.904Z,10.00
2018-04-17T15:44:40.473Z,9.67
2018-04-17T15:47:08.274Z,9.17
2018-04-17T15:49:35.901Z,7.47
2018-04-17T15:52:03.473Z,6.77
2018-04-17T15:54:31.196Z,6.37
2018-04-17T15:56:58.770Z,6.43
2018-04-17T15:59:26.369Z,6.50
2018-04-17T16:01:54.068Z,6.53
2018-04-17T16:04:21.799Z,6.83
2018-04-17T16:06:49.362Z,6.57
2018-04-17T16:09:17.017Z,14.33
2018-04-17T16:11:44.754Z,9.63
2018-04-17T16:14:12.367Z,7.43
2018-04-17T16:16:39.968Z,7.07
2018-04-17T16:19:07.535Z,6.40
2018-04-17T16:21:35.113Z,8.53
2018-04-17T16:24:02.738Z,12.63
2018-04-17T16:26:30.447Z,12.87
2018-04-17T16:28:58.012Z,13.13
2018-04-17T16:31:25.801Z,10.77
2018-04-17T16:33:53.395Z,16.60
2018-04-17T16:36:21.025Z,14.70
2018-04-17T16:38:48.745Z,15.50
2018-04-17T16:41:16.353Z,13.50
2018-04-17T16:43:44.000Z,13.67
2018-04-17T16:46:11.596Z,9.83
2018-04-17T16:48:39.164Z,7.10
2018-04-17T16:51:06.832Z,7.40
2018-04-17T16:53:34.388Z,6.90
2018-04-17T16:56:02.184Z,7.20
2018-04-17T16:58:29.736Z,6.80
2018-04-17T17:00:57.352Z,6.83
2018-04-17T17:03:25.133Z,7.00
2018-04-17T17:05:52.708Z,7.07
2018-04-17T17:08:20.348Z,7.57
2018-04-17T17:10:47.977Z,7.43
2018-04-17T17:13:15.547Z,8.20
2018-04-17T17:15:43.323Z,7.47
2018-04-17T17:18:10.936Z,8.10
2018-04-17T17:20:38.495Z,7.60
2018-04-17T17:23:06.053Z,8.17
2018-04-17T17:25:33.620Z,8.20
2018-04-17T17:28:01.196Z,7.83
2018-04-17T17:30:28.774Z,7.80
2018-04-17T17:32:56.385Z,8.67
2018-04-17T17:35:24.267Z,8.73
2018-04-17T17:37:52.788Z,8.93
2018-04-17T17:40:20.357Z,9.47
2018-04-17T17:42:47.933Z,8.60
2018-04-17T17:45:15.496Z,9.27
2018-04-17T17:47:43.129Z,9.30
2018-04-17T17:50:10.735Z,9.17
2018-04-17T17:52:38.344Z,8.27
2018-04-17T17:55:05.902Z,8.43
2018-04-17T17:57:33.465Z,9.40
2018-04-17T18:00:01.039Z,9.73
2018-04-17T18:02:28.739Z,9.80
2018-04-17T18:04:56.319Z,9.27
2018-04-17T18:07:24.025Z,9.63
2018-04-17T18:09:51.646Z,9.43
2018-04-17T18:12:19.249Z,9.33
2018-04-17T18:14:46.956Z,10.47
2018-04-17T18:17:14.534Z,10.03
2018-04-17T18:19:42.164Z,8.90
2018-04-17T18:22:09.900Z,10.90
2018-04-17T18:24:37.627Z,10.43
2018-04-17T18:27:05.247Z,13.23
2018-04-17T18:29:32.804Z,12.53
2018-04-17T18:32:00.618Z,11.37
2018-04-17T18:34:28.400Z,9.30
2018-04-17T18:36:55.956Z,9.50
2018-04-17T18:39:23.710Z,10.47
2018-04-17T18:41:51.348Z,10.10
2018-04-17T18:44:18.976Z,10.00
2018-04-17T18:46:46.539Z,8.97
2018-04-17T18:49:14.309Z,9.17
2018-04-17T18:51:41.925Z,8.80
2018-04-17T18:54:09.488Z,8.97
2018-04-17T18:56:37.058Z,8.40
2018-04-17T18:59:04.881Z,7.90
2018-04-17T19:01:32.514Z,8.30
2018-04-17T19:04:00.077Z,8.10
2018-04-17T19:06:27.674Z,8.80
2018-04-17T19:08:55.249Z,8.83
2018-04-17T19:11:22.804Z,8.57
2018-04-17T19:13:50.502Z,7.97
2018-04-17T19:16:18.061Z,9.27
2018-04-17T19:18:45.643Z,8.83
2018-04-17T19:21:13.229Z,9.43
2018-04-17T19:23:40.845Z,8.60
2018-04-17T19:26:08.439Z,8.83
2018-04-17T19:28:36.294Z,9.27
2018-04-17T19:31:03.962Z,9.73
2018-04-17T19:33:31.517Z,9.00
2018-04-17T19:35:59.109Z,8.83
2018-04-17T19:38:26.711Z,9.73
2018-04-17T19:40:54.429Z,9.50
2018-04-17T19:43:22.095Z,9.53
2018-04-17T19:45:50.589Z,8.83
2018-04-17T19:48:18.220Z,9.30
2018-04-17T19:50:45.917Z,9.17
2018-04-17T19:53:13.695Z,9.03
2018-04-17T19:55:41.356Z,9.13
2018-04-17T19:58:08.946Z,9.20
2018-04-17T20:00:36.552Z,9.33
2018-04-17T20:03:05.371Z,10.20
2018-04-17T20:05:32.977Z,9.23
2018-04-17T20:08:00.596Z,9.30
2018-04-17T20:10:28.160Z,8.43
2018-04-17T20:12:55.837Z,10.43
2018-04-17T20:15:23.436Z,10.07
2018-04-17T20:17:51.270Z,9.73
2018-04-17T20:20:18.884Z,10.50
2018-04-17T20:22:46.701Z,9.67
2018-04-17T20:25:14.264Z,9.70
2018-04-17T20:27:42.671Z,10.10
2018-04-17T20:30:10.249Z,9.83
2018-04-17T20:32:37.966Z,10.10
2018-04-17T20:35:05.692Z,9.57
2018-04-17T20:37:33.512Z,9.50
2018-04-17T20:40:01.103Z,10.47
2018-04-17T20:42:28.657Z,9.77
2018-04-17T20:44:56.326Z,9.90
2018-04-17T20:47:24.051Z,10.47
2018-04-17T20:49:51.652Z,9.50
2018-04-17T20:52:19.384Z,10.30
2018-04-17T20:54:46.968Z,10.73
2018-04-17T20:57:14.856Z,10.77
2018-04-17T20:59:42.425Z,10.47
2018-04-17T21:02:09.985Z,11.00
2018-04-17T21:04:37.556Z,10.17
2018-04-17T21:07:05.165Z,11.00
2018-04-17T21:09:32.947Z,10.83
2018-04-17T21:12:00.503Z,10.77
2018-04-17T21:14:28.801Z,10.43
2018-04-17T21:16:56.384Z,10.73
2018-04-17T21:19:24.224Z,10.03
2018-04-17T21:21:51.824Z,10.70
2018-04-17T21:24:19.657Z,11.40
2018-04-17T21:26:47.225Z,11.23
2018-04-17T21:29:14.809Z,10.47
2018-04-17T21:31:42.376Z,10.43
2018-04-17T21:34:10.021Z,12.00
2018-04-17T21:36:37.592Z,10.97
2018-04-17T21:39:06.168Z,11.87
2018-04-17T21:41:33.987Z,9.53
2018-04-17T21:44:01.808Z,10.13
2018-04-17T21:46:29.434Z,10.50
2018-04-17T21:48:56.977Z,9.97
2018-04-17T21:51:24.759Z,10.80
2018-04-17T21:53:52.336Z,10.50
2018-04-17T21:56:19.987Z,10.40
2018-04-17T21:58:47.584Z,10.60
2018-04-17T22:01:15.149Z,11.80
2018-04-17T22:03:42.717Z,10.07
2018-04-17T22:06:10.293Z,10.33
2018-04-17T22:08:37.896Z,11.87
2018-04-17T22:11:05.703Z,11.40
2018-04-17T22:13:33.533Z,11.33
2018-04-17T22:16:01.132Z,11.93
2018-04-17T22:18:28.724Z,11.70
2018-04-17T22:20:56.313Z,11.77
2018-04-17T22:23:23.914Z,12.23
2018-04-17T22:25:51.476Z,12.20
2018-04-17T22:28:19.066Z,11.33
2018-04-17T22:30:46.672Z,11.10
2018-04-17T22:33:14.304Z,12.10
2018-04-17T22:35:42.057Z,11.40
2018-04-17T22:38:09.640Z,11.90
2018-04-17T22:40:37.422Z,11.67
2018-04-17T22:43:05.025Z,12.40
2018-04-17T22:45:32.626Z,10.97
2018-04-17T22:48:00.478Z,11.50
2018-04-17T22:50:28.249Z,11.27
2018-04-17T22:52:56.081Z,12.50
2018-04-17T22:55:23.914Z,12.20
2018-04-17T22:57:51.505Z,10.97
2018-04-17T23:00:19.102Z,10.90
2018-04-17T23:02:46.884Z,10.40
2018-04-17T23:05:14.703Z,11.03
2018-04-17T23:07:42.272Z,10.80
2018-04-17T23:10:10.039Z,10.57
2018-04-17T23:12:37.750Z,11.17
2018-04-17T23:15:05.369Z,10.80
2018-04-17T23:17:33.095Z,11.20
2018-04-17T23:20:03.923Z,11.80
2018-04-17T23:22:31.724Z,11.87
2018-04-17T23:24:59.297Z,10.73
2018-04-17T23:27:26.866Z,11.87
2018-04-17T23:29:54.595Z,11.63
2018-04-17T23:32:22.169Z,11.50
2018-04-17T23:34:49.932Z,12.00
2018-04-17T23:37:17.485Z,11.30
2018-04-17T23:39:45.049Z,12.07
2018-04-17T23:42:12.677Z,11.23
2018-04-17T23:44:40.473Z,12.13
2018-04-17T23:47:08.041Z,12.27
2018-04-17T23:49:35.840Z,11.63
2018-04-17T23:52:03.660Z,13.27
2018-04-17T23:54:31.282Z,13.33
2018-04-17T23:56:58.853Z,13.10
2018-04-17T23:59:26.416Z,15.13
